Time;durP1;ratioP1;P1;durP2;ratioP2;P2;SDS_P1;SDS_P2;PMS_P1;PMS_P2;Temp;Humidity;BMP_temperature;BMP_pressure;BME280_temperature;BME280_humidity;BME280_pressure;Samples;Min_cycle;Max_cycle;Signal;HPM_P1;HPM_P2
2021/11/04 00:00:25;;;;;;;4.63;2.50;;;22.00;54.10;;;;;;5054603;28;20406;-79
2021/11/04 00:02:55;;;;;;;2.50;1.97;;;22.00;54.30;;;;;;5055083;28;20398;-79
2021/11/04 00:05:21;;;;;;;2.47;1.80;;;22.00;54.20;;;;;;5037951;28;20425;-80
2021/11/04 00:07:49;;;;;;;2.03;1.80;;;22.00;54.20;;;;;;5054826;28;20413;-79
2021/11/04 00:10:15;;;;;;;2.73;2.20;;;22.00;54.20;;;;;;5037319;28;20430;-79
2021/11/04 00:12:41;;;;;;;2.27;1.77;;;22.00;54.20;;;;;;5055286;28;20421;-79
2021/11/04 00:15:07;;;;;;;2.40;2.00;;;22.00;54.20;;;;;;5038127;28;20503;-79
2021/11/04 00:17:33;;;;;;;3.20;1.90;;;21.90;54.10;;;;;;5055306;28;20200;-79
2021/11/04 00:19:59;;;;;;;1.70;1.60;;;22.00;54.20;;;;;;5038818;28;20410;-79
2021/11/04 00:22:29;;;;;;;2.57;1.93;;;22.00;54.20;;;;;;5055377;28;20410;-78
2021/11/04 00:24:55;;;;;;;2.37;1.70;;;22.00;54.20;;;;;;5055524;28;20403;-80
2021/11/04 00:27:22;;;;;;;4.17;1.73;;;21.90;54.20;;;;;;5038657;28;20477;-79
2021/11/04 00:29:48;;;;;;;2.47;1.77;;;21.90;54.20;;;;;;5036736;28;20426;-79
2021/11/04 00:32:15;;;;;;;2.07;1.80;;;21.90;54.20;;;;;;5055433;28;20421;-79
2021/11/04 00:34:42;;;;;;;2.33;1.70;;;21.90;54.20;;;;;;5055886;28;20440;-79
2021/11/04 00:37:08;;;;;;;1.80;1.70;;;21.90;54.20;;;;;;5053802;28;20449;-80
2021/11/04 00:39:34;;;;;;;2.07;1.60;;;21.90;54.20;;;;;;5003801;28;20419;-79
2021/11/04 00:42:01;;;;;;;1.73;1.60;;;21.90;54.20;;;;;;5035368;28;20484;-79
2021/11/04 00:44:28;;;;;;;2.47;2.03;;;21.90;54.20;;;;;;5036831;28;20175;-79
2021/11/04 00:46:57;;;;;;;2.17;1.60;;;21.90;54.20;;;;;;5036497;28;20422;-79
2021/11/04 00:49:22;;;;;;;2.30;1.77;;;21.90;54.20;;;;;;5035613;28;20434;-79
2021/11/04 00:51:48;;;;;;;1.93;1.60;;;21.90;54.20;;;;;;5053294;28;20450;-79
2021/11/04 00:54:14;;;;;;;2.90;1.60;;;21.90;54.20;;;;;;5020278;28;20188;-79
2021/11/04 00:56:40;;;;;;;2.10;1.80;;;21.90;54.20;;;;;;5053945;28;20461;-79
2021/11/04 00:59:06;;;;;;;2.20;2.03;;;21.90;54.20;;;;;;5036334;28;20203;-79
2021/11/04 01:04:55;;;;;;;1.97;1.40;;;21.90;54.20;;;;;;5053683;28;20167;-79
2021/11/04 01:07:21;;;;;;;2.87;2.10;;;21.90;54.30;;;;;;5035962;28;20505;-79
2021/11/04 01:09:47;;;;;;;2.40;1.73;;;21.90;54.30;;;;;;5037370;28;20421;-79
2021/11/04 01:12:13;;;;;;;5.80;2.00;;;21.90;54.30;;;;;;5036455;28;20434;-79
2021/11/04 01:14:39;;;;;;;2.17;1.60;;;21.90;54.30;;;;;;5035745;28;20176;-79
2021/11/04 01:17:05;;;;;;;3.80;1.87;;;21.90;54.30;;;;;;5037011;28;20461;-79
2021/11/04 01:19:33;;;;;;;3.03;1.83;;;21.90;54.30;;;;;;5055205;28;20399;-79
2021/11/04 01:22:13;;;;;;;2.57;2.13;;;21.90;54.30;;;;;;5036643;28;20453;-79
2021/11/04 01:24:39;;;;;;;2.37;2.17;;;21.90;54.30;;;;;;5036358;28;20429;-79
2021/11/04 01:27:05;;;;;;;3.50;2.17;;;21.90;54.30;;;;;;5055276;28;20423;-79
2021/11/04 01:29:31;;;;;;;2.57;2.37;;;21.80;54.20;;;;;;5054047;28;20691;-79
2021/11/04 01:32:02;;;;;;;2.00;1.73;;;21.90;54.30;;;;;;5054078;28;20426;-79
2021/11/04 01:34:29;;;;;;;2.13;1.57;;;21.90;54.30;;;;;;5037913;28;20411;-79
2021/11/04 01:36:57;;;;;;;2.07;1.70;;;21.90;54.30;;;;;;5035058;28;20489;-79
2021/11/04 01:39:23;;;;;;;2.83;1.87;;;21.90;54.30;;;;;;5034801;28;20846;-79
2021/11/04 01:41:49;;;;;;;2.30;1.73;;;21.80;54.20;;;;;;5035803;28;20442;-79
2021/11/04 01:44:18;;;;;;;2.93;1.63;;;21.90;54.30;;;;;;5035406;28;20211;-79
2021/11/04 01:46:47;;;;;;;2.97;1.90;;;21.80;54.20;;;;;;5003073;28;20414;-80
2021/11/04 01:49:14;;;;;;;2.67;2.17;;;21.80;54.20;;;;;;5052789;28;20417;-79
2021/11/04 01:51:40;;;;;;;2.27;1.80;;;21.80;54.20;;;;;;5035402;28;20411;-79
2021/11/04 01:54:08;;;;;;;2.30;1.77;;;21.80;54.20;;;;;;5033489;28;20469;-79
2021/11/04 01:56:40;;;;;;;2.00;1.80;;;21.80;54.20;;;;;;5034917;28;20290;-79
2021/11/04 01:59:06;;;;;;;2.50;1.80;;;21.80;54.30;;;;;;5035008;28;20537;-79
2021/11/04 02:01:34;;;;;;;2.80;1.93;;;21.80;54.20;;;;;;5052478;28;20406;-79
2021/11/04 02:04:22;;;;;;;2.07;1.87;;;21.80;54.20;;;;;;5035380;28;20434;-79
2021/11/04 02:07:26;;;;;;;2.60;1.83;;;21.90;54.30;;;;;;5034599;28;20422;-79
2021/11/04 02:10:25;;;;;;;3.30;2.33;;;21.80;54.30;;;;;;5035298;28;20418;-79
2021/11/04 02:13:28;;;;;;;2.10;1.70;;;21.80;54.30;;;;;;4991500;28;20421;-79
2021/11/04 02:16:00;;;;;;;2.47;1.97;;;21.80;54.30;;;;;;4992253;28;20456;-79
2021/11/04 02:18:31;;;;;;;2.03;1.83;;;21.80;54.40;;;;;;4993242;28;20437;-79
2021/11/04 02:21:22;;;;;;;2.97;1.50;;;21.80;54.40;;;;;;4993038;28;20424;-79
2021/11/04 02:23:56;;;;;;;1.60;1.50;;;21.80;54.40;;;;;;4990988;28;20444;-79
2021/11/04 02:26:26;;;;;;;4.30;1.80;;;21.80;54.40;;;;;;4962398;28;20429;-79
2021/11/04 02:28:53;;;;;;;1.83;1.73;;;21.80;54.40;;;;;;4992507;28;20425;-79
2021/11/04 02:31:21;;;;;;;1.90;1.70;;;21.80;54.30;;;;;;4976096;28;20421;-78
2021/11/04 02:33:54;;;;;;;1.87;1.70;;;21.80;54.30;;;;;;4977284;28;20837;-79
2021/11/04 02:36:20;;;;;;;2.60;1.83;;;21.80;54.30;;;;;;4976623;28;20481;-79
2021/11/04 02:38:50;;;;;;;2.10;1.70;;;21.80;54.30;;;;;;4991460;28;20445;-79
2021/11/04 02:41:17;;;;;;;1.93;1.70;;;21.80;54.40;;;;;;4991581;28;20488;-79
2021/11/04 02:43:44;;;;;;;1.73;1.60;;;21.80;54.30;;;;;;4974950;28;20428;-79
2021/11/04 02:46:13;;;;;;;1.97;1.77;;;21.80;54.30;;;;;;4991438;28;20436;-79
2021/11/04 02:48:41;;;;;;;2.53;1.80;;;21.80;54.30;;;;;;4977685;28;20488;-78
2021/11/04 02:51:14;;;;;;;2.90;2.13;;;21.80;54.30;;;;;;5020522;28;20433;-79
2021/11/04 02:53:45;;;;;;;2.77;1.63;;;21.80;54.30;;;;;;5018533;28;20435;-78
2021/11/04 02:56:11;;;;;;;1.80;1.70;;;21.80;54.30;;;;;;5034612;28;20477;-79
2021/11/04 02:58:37;;;;;;;3.57;1.90;;;21.80;54.30;;;;;;5018272;28;20444;-79
2021/11/04 03:01:04;;;;;;;2.20;1.70;;;21.80;54.30;;;;;;5034282;28;20429;-78
2021/11/04 03:03:30;;;;;;;2.50;1.80;;;21.80;54.30;;;;;;5033901;28;20414;-79
2021/11/04 03:06:00;;;;;;;2.00;1.80;;;21.80;54.30;;;;;;5037440;28;20429;-79
2021/11/04 03:08:30;;;;;;;1.73;1.53;;;21.80;54.30;;;;;;5037963;28;20439;-79
2021/11/04 03:10:58;;;;;;;1.93;1.80;;;21.80;54.30;;;;;;5038738;28;20399;-79
2021/11/04 03:13:24;;;;;;;1.60;1.50;;;21.80;54.30;;;;;;5055653;28;20406;-80
2021/11/04 03:15:59;;;;;;;2.13;1.93;;;21.80;54.30;;;;;;5037548;28;20529;-79
2021/11/04 03:18:26;;;;;;;2.40;1.80;;;21.80;54.30;;;;;;5039940;28;20175;-79
2021/11/04 03:20:53;;;;;;;1.80;1.60;;;21.80;54.40;;;;;;5039303;28;20477;-80
2021/11/04 03:23:20;;;;;;;1.70;1.57;;;21.80;54.40;;;;;;5039496;28;20410;-79
2021/11/04 03:25:51;;;;;;;2.10;1.90;;;21.80;54.40;;;;;;5039814;28;20442;-79
2021/11/04 03:28:17;;;;;;;3.37;1.90;;;21.80;54.40;;;;;;5055907;28;20425;-79
2021/11/04 03:30:45;;;;;;;1.70;1.60;;;21.80;54.40;;;;;;5038185;28;20418;-79
2021/11/04 03:33:12;;;;;;;2.20;2.00;;;21.80;54.40;;;;;;5056121;28;20413;-78
2021/11/04 03:35:38;;;;;;;2.17;1.97;;;21.80;54.40;;;;;;5037352;28;20917;-78
2021/11/04 03:38:07;;;;;;;2.50;2.10;;;21.80;54.40;;;;;;5055074;28;20402;-79
2021/11/04 03:40:36;;;;;;;2.07;1.70;;;21.80;54.40;;;;;;5055170;28;20470;-79
2021/11/04 03:43:09;;;;;;;2.23;1.70;;;21.80;54.40;;;;;;5037498;28;20415;-79
2021/11/04 03:45:37;;;;;;;1.90;1.77;;;21.70;54.30;;;;;;5037588;28;20457;-79
2021/11/04 03:48:10;;;;;;;2.27;1.80;;;21.70;54.30;;;;;;5053544;28;20417;-79
2021/11/04 03:50:37;;;;;;;2.20;1.60;;;21.70;54.30;;;;;;5055361;28;20445;-79
2021/11/04 03:53:05;;;;;;;1.90;1.70;;;21.70;54.30;;;;;;5055157;28;20475;-77
2021/11/04 03:55:31;;;;;;;2.53;1.77;;;21.70;54.30;;;;;;5037812;28;20429;-79
2021/11/04 03:58:00;;;;;;;1.80;1.70;;;21.70;54.40;;;;;;5037394;28;20521;-79
2021/11/04 04:00:26;;;;;;;1.60;1.47;;;21.70;54.30;;;;;;5037797;28;20419;-79
2021/11/04 04:02:52;;;;;;;2.37;1.83;;;21.70;54.30;;;;;;5055403;28;20413;-79
2021/11/04 04:05:32;;;;;;;1.50;1.40;;;21.70;54.30;;;;;;5038318;28;20414;-79
2021/11/04 04:07:59;;;;;;;1.70;1.57;;;21.80;54.40;;;;;;5055115;28;20171;-79
2021/11/04 04:10:27;;;;;;;2.10;1.70;;;21.70;54.30;;;;;;5037333;28;20935;-79
2021/11/04 04:12:54;;;;;;;1.60;1.50;;;21.70;54.30;;;;;;5035148;28;20407;-79
2021/11/04 04:15:20;;;;;;;1.53;1.10;;;21.70;54.40;;;;;;5037019;28;20482;-78
2021/11/04 04:17:46;;;;;;;2.27;1.57;;;21.70;54.30;;;;;;5038117;28;20493;-78
2021/11/04 04:20:13;;;;;;;2.23;1.87;;;21.70;54.40;;;;;;5055914;28;20417;-78
2021/11/04 04:22:39;;;;;;;2.93;1.60;;;21.70;54.30;;;;;;5037273;28;20414;-78
2021/11/04 04:25:07;;;;;;;2.40;2.20;;;21.70;54.30;;;;;;5021845;28;20422;-79
2021/11/04 04:27:33;;;;;;;1.97;1.83;;;21.70;54.30;;;;;;5037898;28;20993;-79
2021/11/04 04:29:58;;;;;;;1.93;1.80;;;21.70;54.30;;;;;;5036451;28;20437;-78
2021/11/04 04:32:25;;;;;;;2.20;1.37;;;21.70;54.30;;;;;;5056101;28;20195;-78
2021/11/04 04:34:51;;;;;;;2.00;1.73;;;21.70;54.40;;;;;;5037753;28;20414;-78
2021/11/04 04:37:18;;;;;;;2.30;1.97;;;21.70;54.30;;;;;;5037022;28;20249;-78
2021/11/04 04:39:44;;;;;;;2.53;1.70;;;21.70;54.40;;;;;;5036556;28;20419;-78
2021/11/04 04:42:11;;;;;;;1.60;1.50;;;21.70;54.30;;;;;;5053542;28;20521;-78
2021/11/04 04:44:40;;;;;;;1.63;1.53;;;21.70;54.30;;;;;;5053349;28;20410;-78
2021/11/04 04:47:09;;;;;;;1.93;1.47;;;21.70;54.30;;;;;;5036358;28;20421;-78
2021/11/04 04:52:58;;;;;;;1.90;1.70;;;21.70;54.30;;;;;;5054163;28;20378;-79
2021/11/04 04:55:26;;;;;;;1.83;1.63;;;21.60;54.30;;;;;;5036031;28;20449;-79
2021/11/04 04:57:51;;;;;;;2.00;1.70;;;21.70;54.40;;;;;;5036952;28;20619;-79
2021/11/04 05:03:40;;;;;;;1.90;1.70;;;21.70;54.40;;;;;;5053916;28;20179;-79
2021/11/04 05:06:06;;;;;;;2.10;1.83;;;21.60;54.40;;;;;;5054162;28;20406;-79
2021/11/04 05:08:35;;;;;;;1.97;1.53;;;21.60;54.40;;;;;;5035719;28;20414;-79
2021/11/04 05:11:01;;;;;;;1.63;1.43;;;21.60;54.40;;;;;;5053106;28;20426;-79
2021/11/04 05:13:27;;;;;;;2.00;1.73;;;21.60;54.40;;;;;;5053944;28;20407;-79
2021/11/04 05:15:53;;;;;;;1.50;1.40;;;21.60;54.40;;;;;;5036260;28;20203;-79
2021/11/04 05:18:19;;;;;;;1.33;1.23;;;21.60;54.40;;;;;;5055468;28;20461;-79
2021/11/04 05:20:45;;;;;;;2.80;1.80;;;21.60;54.40;;;;;;5036601;28;20172;-78
2021/11/04 05:23:12;;;;;;;1.77;1.40;;;21.60;54.40;;;;;;5035212;28;20175;-79
2021/11/04 05:25:38;;;;;;;2.03;1.53;;;21.60;54.40;;;;;;5032122;28;20454;-79
2021/11/04 05:28:07;;;;;;;2.20;1.87;;;21.60;54.40;;;;;;5032962;28;20419;-79
2021/11/04 05:30:34;;;;;;;1.70;1.60;;;21.60;54.40;;;;;;5033328;28;20188;-79
2021/11/04 05:33:00;;;;;;;1.70;1.60;;;21.60;54.40;;;;;;5015505;28;20438;-79
2021/11/04 05:35:29;;;;;;;1.40;1.30;;;21.60;54.40;;;;;;5015891;28;20416;-79
2021/11/04 05:37:54;;;;;;;1.80;1.70;;;21.60;54.40;;;;;;5015698;28;20176;-79
2021/11/04 05:40:58;;;;;;;2.00;1.63;;;21.60;54.30;;;;;;5033053;28;20447;-79
2021/11/04 05:43:23;;;;;;;2.10;1.70;;;21.70;54.40;;;;;;5033063;28;20207;-78
2021/11/04 05:45:49;;;;;;;1.53;1.43;;;21.60;54.30;;;;;;5032656;28;20408;-79
2021/11/04 05:48:15;;;;;;;1.63;1.53;;;21.60;54.30;;;;;;5016213;28;20188;-78
2021/11/04 05:50:42;;;;;;;1.60;1.40;;;21.70;54.30;;;;;;5033350;28;20183;-79
2021/11/04 05:53:07;;;;;;;1.93;1.57;;;21.70;54.30;;;;;;5033040;28;20192;-78
2021/11/04 05:55:33;;;;;;;1.97;1.50;;;21.70;54.30;;;;;;5032542;28;20427;-79
2021/11/04 05:57:59;;;;;;;1.30;1.20;;;21.70;54.30;;;;;;5016115;28;20231;-78
2021/11/04 06:00:24;;;;;;;3.10;1.70;;;21.70;54.30;;;;;;5033013;28;20180;-79
2021/11/04 06:02:50;;;;;;;1.90;1.60;;;21.70;54.20;;;;;;5015968;28;20169;-79
2021/11/04 06:05:16;;;;;;;1.70;1.50;;;21.70;54.20;;;;;;5033429;28;20243;-79
2021/11/04 06:07:45;;;;;;;1.90;1.40;;;21.70;54.20;;;;;;5033163;28;20179;-78
2021/11/04 06:10:10;;;;;;;1.87;1.60;;;21.80;54.20;;;;;;5032909;28;20169;-78
2021/11/04 06:12:37;;;;;;;1.60;1.50;;;21.80;54.20;;;;;;5015923;28;20787;-78
2021/11/04 06:15:06;;;;;;;1.80;1.70;;;21.70;54.10;;;;;;5018061;28;20215;-81
2021/11/04 06:17:32;;;;;;;1.70;1.60;;;21.80;54.20;;;;;;5015900;28;20487;-78
2021/11/04 06:19:57;;;;;;;1.63;1.53;;;21.80;54.20;;;;;;5015719;28;20911;-77
2021/11/04 06:22:23;;;;;;;1.47;1.33;;;21.80;54.10;;;;;;5015845;28;20176;-79
2021/11/04 06:24:49;;;;;;;1.50;1.40;;;21.80;54.10;;;;;;5015602;28;20180;-79
2021/11/04 06:27:15;;;;;;;2.40;1.40;;;21.80;54.10;;;;;;5015219;28;20184;-79
2021/11/04 06:29:40;;;;;;;2.00;1.77;;;21.80;54.00;;;;;;5015287;28;20210;-79
2021/11/04 06:32:07;;;;;;;1.70;1.50;;;21.80;54.00;;;;;;5032501;28;20176;-80
2021/11/04 06:34:36;;;;;;;1.97;1.70;;;21.80;54.10;;;;;;5017938;28;20184;-81
2021/11/04 06:37:02;;;;;;;2.03;1.83;;;21.80;54.00;;;;;;5014431;28;20470;-80
2021/11/04 06:42:50;;;;;;;2.00;1.67;;;21.80;54.00;;;;;;5033445;28;20163;-79
2021/11/04 06:45:16;;;;;;;3.60;1.83;;;21.80;54.00;;;;;;5033215;28;20768;-80
2021/11/04 06:47:51;;;;;;;3.30;2.30;;;21.80;54.00;;;;;;5015896;28;20188;-80
2021/11/04 06:50:20;;;;;;;1.70;1.60;;;21.80;54.00;;;;;;5016207;28;20200;-79
2021/11/04 06:52:53;;;;;;;2.00;1.80;;;21.80;54.00;;;;;;4999627;28;20415;-80
2021/11/04 06:55:24;;;;;;;2.80;1.80;;;21.80;53.90;;;;;;5033338;28;20442;-79
2021/11/04 06:57:52;;;;;;;2.03;1.70;;;21.80;53.90;;;;;;5015879;28;20526;-79
2021/11/04 07:00:18;;;;;;;1.60;1.30;;;21.80;53.80;;;;;;5016096;28;20422;-79
2021/11/04 07:02:51;;;;;;;3.30;1.50;;;21.80;53.90;;;;;;5015980;28;20416;-79
2021/11/04 07:05:18;;;;;;;2.00;1.47;;;21.80;53.90;;;;;;5016198;28;20176;-79
2021/11/04 07:07:47;;;;;;;2.27;1.47;;;21.80;53.90;;;;;;5015754;28;20419;-79
2021/11/04 07:10:34;;;;;;;1.83;1.40;;;21.80;53.90;;;;;;5015640;28;20418;-81
2021/11/04 07:13:00;;;;;;;1.70;1.60;;;21.80;53.80;;;;;;5015992;28;20484;-79
2021/11/04 07:15:25;;;;;;;2.20;1.53;;;21.80;53.90;;;;;;5015445;28;20439;-80
2021/11/04 07:17:57;;;;;;;1.90;1.70;;;21.80;53.90;;;;;;5032137;28;20258;-80
2021/11/04 07:20:25;;;;;;;1.93;1.73;;;21.80;54.00;;;;;;5030664;28;20195;-79
2021/11/04 07:22:53;;;;;;;1.87;1.50;;;21.80;53.90;;;;;;5033079;28;20414;-78
2021/11/04 07:25:23;;;;;;;1.60;1.40;;;21.80;53.90;;;;;;5032747;28;20403;-79
2021/11/04 07:28:14;;;;;;;1.70;1.60;;;21.80;53.90;;;;;;5032886;28;20438;-78
2021/11/04 07:30:41;;;;;;;1.87;1.67;;;21.90;53.90;;;;;;5031978;28;20400;-79
2021/11/04 07:33:08;;;;;;;2.20;1.57;;;21.80;53.80;;;;;;5015593;28;20419;-78
2021/11/04 07:35:36;;;;;;;1.70;1.40;;;21.80;53.90;;;;;;5032679;28;20414;-78
2021/11/04 07:38:05;;;;;;;2.07;1.17;;;21.80;53.90;;;;;;5031618;28;20889;-79
2021/11/04 07:40:32;;;;;;;2.20;1.63;;;21.90;53.90;;;;;;5032422;28;20403;-78
2021/11/04 07:42:58;;;;;;;2.00;1.40;;;21.90;53.90;;;;;;5014759;28;20479;-77
2021/11/04 07:45:26;;;;;;;1.60;1.20;;;21.90;53.90;;;;;;5014592;28;20418;-77
2021/11/04 07:47:52;;;;;;;1.80;1.17;;;21.90;53.90;;;;;;5032120;28;20426;-77
2021/11/04 07:50:23;;;;;;;1.87;1.53;;;21.90;53.90;;;;;;5033247;28;20490;-79
2021/11/04 07:52:49;;;;;;;1.63;1.03;;;21.90;53.90;;;;;;5035864;28;20164;-79
2021/11/04 07:55:19;;;;;;;1.33;1.17;;;21.90;53.90;;;;;;5019343;28;20505;-79
2021/11/04 07:57:46;;;;;;;1.57;1.30;;;21.90;53.90;;;;;;5018317;28;20220;-78
2021/11/04 08:00:16;;;;;;;1.93;1.37;;;21.90;53.90;;;;;;5036536;28;20414;-78
2021/11/04 08:02:44;;;;;;;1.20;1.10;;;21.90;53.90;;;;;;5036438;28;20414;-78
2021/11/04 08:05:14;;;;;;;1.50;1.23;;;21.90;53.90;;;;;;5037039;28;20437;-79
2021/11/04 08:07:40;;;;;;;1.60;1.30;;;22.00;54.00;;;;;;5036126;28;20462;-78
2021/11/04 08:10:09;;;;;;;1.87;1.17;;;22.00;54.00;;;;;;5035619;28;20447;-77
2021/11/04 08:12:35;;;;;;;1.20;1.07;;;22.00;54.00;;;;;;5037795;28;20426;-79
2021/11/04 08:15:06;;;;;;;1.27;1.17;;;22.00;54.00;;;;;;5037333;28;20415;-79
2021/11/04 08:17:32;;;;;;;1.43;1.20;;;22.00;53.90;;;;;;5017468;28;20465;-78
2021/11/04 08:19:58;;;;;;;2.07;1.50;;;22.00;53.90;;;;;;5015617;28;20422;-84
2021/11/04 08:22:24;;;;;;;2.03;1.60;;;22.00;53.90;;;;;;5013346;28;20442;-83
2021/11/04 08:24:50;;;;;;;1.73;1.47;;;22.00;53.90;;;;;;5017864;28;20184;-82
2021/11/04 08:27:18;;;;;;;2.17;1.70;;;22.00;53.90;;;;;;5017299;28;20423;-79
2021/11/04 08:29:47;;;;;;;1.50;1.30;;;22.00;53.90;;;;;;5017385;28;20415;-80
2021/11/04 08:32:13;;;;;;;2.07;1.20;;;22.00;53.80;;;;;;5034449;28;20446;-79
2021/11/04 08:34:39;;;;;;;3.13;1.40;;;22.00;53.80;;;;;;5033205;28;20423;-81
2021/11/04 08:37:11;;;;;;;1.60;1.20;;;22.00;53.80;;;;;;5015561;28;20211;-81
2021/11/04 08:39:43;;;;;;;1.87;1.10;;;22.10;53.90;;;;;;5032879;28;20412;-80
2021/11/04 08:42:09;;;;;;;1.53;1.43;;;22.10;53.90;;;;;;5015053;28;20415;-80
2021/11/04 08:44:35;;;;;;;3.43;1.30;;;22.10;53.90;;;;;;5032966;28;20411;-81
2021/11/04 08:47:06;;;;;;;2.27;1.20;;;22.10;53.90;;;;;;5015325;28;20438;-79
2021/11/04 08:49:33;;;;;;;1.47;1.37;;;22.10;53.90;;;;;;5032631;28;20169;-79
2021/11/04 08:51:59;;;;;;;2.07;1.40;;;22.10;53.90;;;;;;5032726;28;20428;-81
2021/11/04 08:54:28;;;;;;;1.30;1.10;;;22.10;53.90;;;;;;5015131;28;20423;-80
2021/11/04 08:56:54;;;;;;;3.97;1.40;;;22.10;53.90;;;;;;5032182;28;20196;-81
2021/11/04 08:59:20;;;;;;;2.90;1.50;;;22.10;53.90;;;;;;5031496;28;20404;-81
2021/11/04 09:01:46;;;;;;;2.83;1.60;;;22.10;53.90;;;;;;5013941;28;20408;-81
2021/11/04 09:04:15;;;;;;;4.57;1.73;;;22.20;54.00;;;;;;5030843;28;20401;-81
2021/11/04 09:06:41;;;;;;;1.50;1.13;;;22.20;54.00;;;;;;5031267;28;20435;-81
2021/11/04 09:09:18;;;;;;;2.33;1.30;;;22.20;54.00;;;;;;5014017;28;20424;-81
2021/11/04 09:11:47;;;;;;;2.80;1.30;;;22.20;54.00;;;;;;5030832;28;20231;-81
2021/11/04 09:14:13;;;;;;;1.90;1.33;;;22.20;54.00;;;;;;5030361;28;20422;-81
2021/11/04 09:16:41;;;;;;;3.37;1.50;;;22.20;54.00;;;;;;5013275;28;20985;-81
2021/11/04 09:19:06;;;;;;;1.20;1.10;;;22.20;54.00;;;;;;5013141;28;20435;-81
2021/11/04 09:21:32;;;;;;;1.47;1.20;;;22.30;54.10;;;;;;5014690;28;20412;-81
2021/11/04 09:23:58;;;;;;;1.37;1.10;;;22.30;54.10;;;;;;5031048;28;20176;-80
2021/11/04 09:26:24;;;;;;;1.67;1.27;;;22.30;54.10;;;;;;5031047;28;20183;-81
2021/11/04 09:28:53;;;;;;;1.50;1.20;;;22.30;54.10;;;;;;5030535;28;20181;-80
2021/11/04 09:31:20;;;;;;;1.70;1.20;;;22.30;54.10;;;;;;5013909;28;20200;-81
2021/11/04 09:33:46;;;;;;;2.27;1.30;;;22.30;54.10;;;;;;5033214;28;20411;-79
2021/11/04 09:36:13;;;;;;;1.30;1.10;;;22.30;54.10;;;;;;5033805;28;20458;-79
2021/11/04 09:38:42;;;;;;;2.70;1.17;;;22.30;54.10;;;;;;5016243;28;20249;-79
2021/11/04 09:41:07;;;;;;;2.13;1.30;;;22.30;54.10;;;;;;5032597;28;20478;-79
2021/11/04 09:43:33;;;;;;;1.47;1.20;;;22.30;54.10;;;;;;5016257;28;20419;-79
2021/11/04 09:46:01;;;;;;;2.63;1.77;;;22.30;54.10;;;;;;5016011;28;20204;-79
2021/11/04 09:48:29;;;;;;;1.67;1.30;;;22.30;54.10;;;;;;5033907;28;20176;-79
2021/11/04 09:50:55;;;;;;;1.73;1.50;;;22.40;54.20;;;;;;5033549;28;20435;-79
2021/11/04 09:53:21;;;;;;;6.13;1.83;;;22.40;54.20;;;;;;5033686;28;20423;-78
2021/11/04 09:55:47;;;;;;;2.63;1.50;;;22.40;54.20;;;;;;5015864;28;20184;-79
2021/11/04 09:58:13;;;;;;;4.90;1.80;;;22.40;54.20;;;;;;4999371;28;20458;-79
2021/11/04 10:00:41;;;;;;;2.60;1.70;;;22.40;54.20;;;;;;5016164;28;20439;-79
2021/11/04 10:03:08;;;;;;;2.70;1.77;;;22.40;54.20;;;;;;5015902;28;20200;-79
2021/11/04 10:06:02;;;;;;;4.93;1.90;;;22.40;54.20;;;;;;5014669;28;20415;-79
2021/11/04 10:08:38;;;;;;;2.40;1.43;;;22.50;54.30;;;;;;5029846;28;20420;-78
2021/11/04 10:11:11;;;;;;;4.50;1.93;;;22.50;54.30;;;;;;5032406;28;20396;-78
2021/11/04 10:13:40;;;;;;;4.97;1.77;;;22.50;54.30;;;;;;5014985;28;20425;-79
2021/11/04 10:16:13;;;;;;;1.97;1.60;;;22.50;54.80;;;;;;5033073;28;20455;-78
2021/11/04 10:18:41;;;;;;;3.37;1.50;;;22.50;54.20;;;;;;5000097;28;20419;-79
2021/11/04 10:21:07;;;;;;;2.50;1.67;;;22.50;54.20;;;;;;5032468;28;20412;-79
2021/11/04 10:23:44;;;;;;;3.00;1.93;;;22.50;54.20;;;;;;5032979;28;20407;-78
2021/11/04 10:26:15;;;;;;;2.03;1.33;;;22.60;54.30;;;;;;5032821;28;20841;-78
2021/11/04 10:28:59;;;;;;;3.97;1.73;;;22.60;54.80;;;;;;5032890;28;20415;-79
2021/11/04 10:31:58;;;;;;;1.83;1.33;;;22.60;54.20;;;;;;5015215;28;20415;-79
2021/11/04 10:34:25;;;;;;;3.83;1.43;;;22.60;54.20;;;;;;5000731;28;20486;-78
2021/11/04 10:36:52;;;;;;;4.70;1.77;;;22.60;54.20;;;;;;5033488;28;20478;-78
2021/11/04 10:39:18;;;;;;;1.50;1.40;;;22.60;54.20;;;;;;5016500;28;20446;-78
2021/11/04 10:41:59;;;;;;;4.00;1.60;;;22.60;54.20;;;;;;5016453;28;20415;-80
2021/11/04 10:44:33;;;;;;;1.93;1.63;;;22.60;54.20;;;;;;5033131;28;20395;-79
2021/11/04 10:46:59;;;;;;;2.07;1.23;;;22.60;54.20;;;;;;5014900;28;20977;-79
2021/11/04 10:49:27;;;;;;;2.10;1.40;;;22.60;54.20;;;;;;5036893;28;20472;-78
2021/11/04 10:52:10;;;;;;;;;;;;;;;;;;;;;
2021/11/04 10:54:45;;;;;;;2.53;1.40;;;22.70;54.20;;;;;;5052477;28;20437;-81
2021/11/04 10:57:11;;;;;;;3.33;1.50;;;22.70;54.20;;;;;;5048231;28;20488;-80
2021/11/04 10:59:48;;;;;;;1.90;1.27;;;22.70;54.20;;;;;;5051523;28;20426;-80
2021/11/04 11:02:17;;;;;;;1.60;1.37;;;22.70;54.20;;;;;;5046933;28;20418;-80
2021/11/04 11:04:43;;;;;;;2.00;1.30;;;22.70;54.10;;;;;;5026629;28;20427;-80
2021/11/04 11:07:10;;;;;;;2.00;1.47;;;22.70;54.10;;;;;;5034363;28;20460;-79
2021/11/04 11:09:37;;;;;;;2.67;1.20;;;22.80;54.20;;;;;;5051224;28;20460;-80
2021/11/04 11:12:07;;;;;;;3.67;1.57;;;22.80;54.20;;;;;;5033922;28;20433;-81
2021/11/04 11:14:36;;;;;;;2.00;1.30;;;22.80;54.10;;;;;;5050965;28;20406;-79
2021/11/04 11:17:04;;;;;;;1.67;1.37;;;22.80;54.10;;;;;;5032617;28;20480;-80
2021/11/04 11:19:41;;;;;;;2.17;1.30;;;22.80;54.10;;;;;;5046959;28;20418;-80
2021/11/04 11:22:10;;;;;;;2.90;1.40;;;22.80;54.10;;;;;;5049413;28;20395;-80
2021/11/04 11:24:39;;;;;;;1.53;1.07;;;22.80;54.10;;;;;;5046774;28;20439;-81
2021/11/04 11:27:17;;;;;;;2.43;1.20;;;22.90;54.20;;;;;;5035953;28;20426;-80
2021/11/04 11:29:45;;;;;;;3.73;1.37;;;22.90;54.10;;;;;;5054403;28;20413;-81
2021/11/04 11:32:38;;;;;;;1.90;1.70;;;22.90;54.10;;;;;;5036728;28;20419;-81
2021/11/04 11:35:29;;;;;;;1.57;1.27;;;22.90;54.10;;;;;;5039004;28;20414;-82
2021/11/04 11:37:55;;;;;;;2.60;1.30;;;22.90;54.20;;;;;;5045542;28;20461;-81
2021/11/04 11:40:24;;;;;;;2.43;1.50;;;22.80;54.10;;;;;;5050274;28;20422;-80
2021/11/04 11:43:00;;;;;;;1.63;1.10;;;22.80;54.20;;;;;;5036125;28;20179;-80
2021/11/04 11:52:46;;;;;;;2.40;1.47;;;22.80;54.20;;;;;;4934889;29;20411;-78
2021/11/04 12:01:49;;;;;;;2.00;1.47;;;22.70;54.30;;;;;;4944824;29;20442;-78
2021/11/04 12:04:27;;;;;;;3.50;1.40;;;22.70;54.40;;;;;;4932399;29;20836;-77
2021/11/04 12:06:54;;;;;;;3.27;1.43;;;22.80;54.40;;;;;;4931036;29;20423;-78
2021/11/04 12:09:55;;;;;;;2.97;1.60;;;22.70;54.40;;;;;;4949828;29;20407;-78
2021/11/04 12:12:43;;;;;;;2.83;1.27;;;22.80;54.40;;;;;;4934134;29;20444;-77
2021/11/04 12:15:10;;;;;;;3.17;1.43;;;22.70;54.30;;;;;;4945443;29;20805;-78
2021/11/04 12:17:35;;;;;;;5.87;1.63;;;22.70;54.30;;;;;;4925139;29;20469;-78
2021/11/04 12:20:01;;;;;;;2.73;1.30;;;22.70;54.30;;;;;;4919237;29;20440;-78
2021/11/04 12:22:28;;;;;;;5.23;1.80;;;22.70;54.30;;;;;;4951707;29;20190;-77
2021/11/04 12:24:57;;;;;;;2.77;1.53;;;22.70;54.30;;;;;;5032044;28;20429;-78
2021/11/04 12:27:24;;;;;;;3.40;1.70;;;22.70;54.30;;;;;;5033836;28;20457;-77
2021/11/04 12:29:51;;;;;;;5.10;1.53;;;22.70;54.30;;;;;;5051416;28;20936;-78
2021/11/04 12:32:20;;;;;;;2.53;1.70;;;22.70;54.30;;;;;;5034261;28;20438;-78
2021/11/04 12:34:58;;;;;;;2.70;1.20;;;22.70;54.30;;;;;;5032480;28;20419;-79
2021/11/04 12:37:28;;;;;;;3.90;1.47;;;22.70;54.30;;;;;;5033393;28;20468;-78
2021/11/04 12:39:54;;;;;;;1.50;1.40;;;22.70;54.30;;;;;;5033545;28;20430;-77
2021/11/04 12:42:20;;;;;;;4.07;2.30;;;22.70;54.30;;;;;;5029717;28;20449;-78
2021/11/04 12:44:46;;;;;;;3.20;2.50;;;22.70;54.30;;;;;;5029544;28;20528;-79
2021/11/04 12:47:22;;;;;;;4.30;1.97;;;22.70;54.30;;;;;;5050026;28;20235;-78
2021/11/04 12:49:49;;;;;;;7.83;2.60;;;22.70;54.40;;;;;;5048139;28;20464;-78
2021/11/04 12:52:15;;;;;;;6.00;2.67;;;22.70;54.40;;;;;;5028070;28;20435;-78
2021/11/04 12:54:45;;;;;;;3.40;2.47;;;22.70;54.40;;;;;;5032049;28;20465;-79
2021/11/04 12:57:13;;;;;;;6.63;2.70;;;22.60;54.30;;;;;;5027955;28;20450;-78
2021/11/04 13:00:01;;;;;;;5.63;3.27;;;22.70;54.40;;;;;;5028688;28;20449;-77
2021/11/04 13:02:36;;;;;;;5.63;3.83;;;22.70;54.40;;;;;;5044511;28;20446;-77
2021/11/04 13:05:13;;;;;;;7.77;3.90;;;22.60;54.30;;;;;;5049782;28;21171;-77
2021/11/04 13:07:41;;;;;;;7.20;4.03;;;22.60;54.30;;;;;;5049907;28;20445;-76
2021/11/04 13:10:28;;;;;;;7.93;4.60;;;22.60;54.40;;;;;;5030939;28;20441;-77
2021/11/04 13:13:01;;;;;;;11.97;5.20;;;22.60;54.40;;;;;;5048839;28;20422;-78
2021/11/04 13:15:34;;;;;;;11.03;5.83;;;22.60;54.40;;;;;;5052693;28;20422;-77
2021/11/04 13:18:08;;;;;;;9.70;5.40;;;22.60;54.40;;;;;;5037784;28;20871;-77
2021/11/04 13:20:33;;;;;;;10.10;5.67;;;22.60;54.40;;;;;;5032839;28;20430;-77
2021/11/04 13:23:04;;;;;;;12.77;6.40;;;22.60;54.40;;;;;;5033782;28;20441;-76
2021/11/04 13:25:36;;;;;;;11.00;5.87;;;22.50;54.40;;;;;;5034750;28;20172;-78